Terminal Aerodrome Forecast
Issued by NWS Omaha/Valley, NE

Current Version | Previous Version | Text Only | Print | Product List | Glossary On
Versions: 1 2 3 4 5 6 7 8 9 10 11 12 13 14 15 16 17 18 19 20 21 22 23
000
FTUS43 KOAX 251040 AAB
TAFOMA
TAF AMD
KOMA 251040Z 2511/2606 31012G21KT P6SM SCT015 SCT023 OVC030
     FM251700 31012G20KT P6SM SCT100
     FM260000 32010KT P6SM SKC=

USA.gov is the U.S. government's official web portal to all federal, state and local government web resources and services.